createdAt,value
2019-05-12T00:02:14.792Z,2.50
2019-05-12T00:07:18.021Z,2.43
2019-05-12T00:12:20.158Z,2.57
2019-05-12T00:17:24.655Z,2.70
2019-05-12T00:22:31.034Z,2.87
2019-05-12T00:27:33.792Z,3.30
2019-05-12T00:32:35.650Z,3.00
2019-05-12T00:37:38.329Z,3.20
2019-05-12T00:42:41.974Z,3.20
2019-05-12T00:47:43.697Z,3.37
2019-05-12T00:52:45.729Z,3.10
2019-05-12T00:57:48.497Z,3.20
2019-05-12T01:02:53.162Z,3.00
2019-05-12T01:07:58.363Z,3.10
2019-05-12T01:13:00.976Z,3.30
2019-05-12T01:18:09.463Z,3.47
2019-05-12T01:23:23.051Z,3.40
2019-05-12T01:28:25.165Z,3.47
2019-05-12T01:33:27.731Z,3.53
2019-05-12T01:38:29.812Z,3.47
2019-05-12T01:43:32.173Z,3.23
2019-05-12T01:48:37.768Z,3.00
2019-05-12T01:53:40.354Z,3.20
2019-05-12T01:58:42.310Z,2.90
2019-05-12T02:03:44.227Z,2.97
2019-05-12T02:08:51.318Z,3.47
2019-05-12T02:13:53.915Z,3.13
2019-05-12T02:18:58.176Z,3.10
2019-05-12T02:23:59.831Z,3.27
2019-05-12T02:29:01.745Z,3.27
2019-05-12T02:34:05.906Z,2.77
2019-05-12T02:39:08.083Z,3.00
2019-05-12T02:44:10.202Z,3.27
2019-05-12T02:49:14.636Z,3.13
2019-05-12T02:54:16.623Z,2.90
2019-05-12T02:59:21.278Z,2.80
2019-05-12T03:04:28.842Z,3.00
2019-05-12T03:09:30.936Z,2.97
2019-05-12T03:14:39.353Z,3.20
2019-05-12T03:19:36.631Z,3.00
2019-05-12T03:24:38.776Z,3.30
2019-05-12T03:29:40.562Z,3.27
2019-05-12T03:34:47.418Z,3.80
2019-05-12T03:39:48.542Z,3.40
2019-05-12T03:44:54.750Z,3.83
2019-05-12T03:49:56.507Z,3.90
2019-05-12T03:54:58.587Z,3.80
2019-05-12T04:00:00.412Z,4.40
2019-05-12T04:05:05.194Z,4.77
2019-05-12T04:10:07.177Z,5.60
2019-05-12T04:15:16.382Z,5.50
2019-05-12T04:20:20.899Z,5.60
2019-05-12T04:25:25.597Z,5.33
2019-05-12T04:30:27.525Z,5.27
2019-05-12T04:35:29.911Z,5.00
2019-05-12T04:40:36.833Z,4.37
2019-05-12T04:45:38.797Z,4.60
2019-05-12T04:50:40.625Z,4.20
2019-05-12T04:55:44.480Z,4.20
2019-05-12T05:00:46.612Z,4.07
2019-05-12T05:05:48.719Z,4.00
2019-05-12T05:10:50.649Z,2.90
2019-05-12T05:15:55.123Z,3.07
2019-05-12T05:20:56.916Z,3.30
2019-05-12T05:26:03.155Z,3.10
2019-05-12T05:31:04.739Z,2.90
2019-05-12T05:36:15.083Z,2.83
2019-05-12T05:41:17.258Z,2.80
2019-05-12T05:46:19.295Z,2.70
2019-05-12T05:51:21.252Z,2.30
2019-05-12T05:56:38.417Z,2.37
2019-05-12T06:01:27.785Z,2.07
2019-05-12T06:06:29.932Z,1.80
2019-05-12T06:11:34.505Z,1.90
2019-05-12T06:16:36.969Z,1.43
2019-05-12T06:21:45.810Z,1.40
2019-05-12T06:26:59.967Z,1.47
2019-05-12T06:31:54.149Z,1.97
2019-05-12T06:37:02.395Z,1.40
2019-05-12T06:42:11.607Z,1.50
2019-05-12T06:47:08.114Z,1.53
2019-05-12T06:52:08.527Z,1.60
2019-05-12T06:57:22.092Z,1.67
2019-05-12T07:02:16.293Z,1.77
2019-05-12T07:07:18.297Z,2.07
2019-05-12T07:12:24.873Z,1.60
2019-05-12T07:17:43.599Z,1.50
2019-05-12T07:22:44.439Z,1.30
2019-05-12T07:27:53.650Z,1.50
2019-05-12T07:32:51.121Z,1.50
2019-05-12T07:37:56.066Z,1.33
2019-05-12T07:43:09.848Z,1.83
2019-05-12T07:48:11.344Z,1.40
2019-05-12T07:53:14.491Z,1.40
2019-05-12T07:58:19.018Z,1.30
2019-05-12T08:03:21.381Z,1.77
2019-05-12T08:08:23.821Z,1.40
2019-05-12T08:13:25.725Z,1.40
2019-05-12T08:18:30.759Z,1.80
2019-05-12T08:23:33.729Z,1.53
2019-05-12T08:28:40.386Z,1.70
2019-05-12T08:33:43.472Z,1.47
2019-05-12T08:38:45.198Z,1.50
2019-05-12T08:43:54.523Z,1.30
2019-05-12T08:48:56.630Z,1.30
2019-05-12T08:54:02.351Z,1.50
2019-05-12T08:59:04.443Z,1.90
2019-05-12T09:04:11.136Z,1.50
2019-05-12T09:09:13.949Z,1.50
2019-05-12T09:14:18.648Z,1.60
2019-05-12T09:19:26.679Z,1.63
2019-05-12T09:24:27.819Z,1.50
2019-05-12T09:29:35.119Z,1.57
2019-05-12T09:34:37.256Z,1.37
2019-05-12T09:39:42.810Z,1.50
2019-05-12T09:44:43.899Z,1.53
2019-05-12T09:49:45.885Z,1.40
2019-05-12T09:54:48.975Z,1.30
2019-05-12T09:59:57.252Z,1.70
2019-05-12T10:04:56.433Z,1.60
2019-05-12T10:09:59.184Z,1.80
2019-05-12T10:15:04.243Z,1.60
2019-05-12T10:20:06.930Z,1.80
2019-05-12T10:25:14.460Z,1.37
2019-05-12T10:30:17.246Z,1.20
2019-05-12T10:35:21.414Z,1.80
2019-05-12T10:40:24.810Z,1.60
2019-05-12T10:45:28.947Z,1.80
2019-05-12T10:50:31.115Z,1.50
2019-05-12T10:55:34.933Z,1.50
2019-05-12T11:00:36.965Z,1.40
2019-05-12T11:05:38.915Z,1.60
2019-05-12T11:10:40.896Z,2.10
2019-05-12T11:15:47.780Z,1.93
2019-05-12T11:20:46.653Z,1.90
2019-05-12T11:25:50.466Z,1.87
2019-05-12T11:30:52.407Z,1.70
2019-05-12T11:35:54.495Z,1.90
2019-05-12T11:40:56.459Z,1.80
2019-05-12T11:45:58.336Z,1.53
2019-05-12T11:51:03.895Z,1.40
2019-05-12T11:56:07.785Z,1.77
2019-05-12T12:01:13.487Z,1.80
2019-05-12T12:06:18.816Z,2.00
2019-05-12T12:11:25.572Z,2.00
2019-05-12T12:16:26.010Z,1.67
2019-05-12T12:21:31.804Z,1.50
2019-05-12T12:26:38.781Z,1.60
2019-05-12T12:31:48.172Z,1.70
2019-05-12T12:36:50.095Z,1.60
2019-05-12T12:42:00.064Z,1.70
2019-05-12T12:47:00.131Z,1.40
2019-05-12T12:52:03.283Z,1.60
2019-05-12T12:57:09.786Z,1.77
2019-05-12T13:02:11.574Z,1.60
2019-05-12T13:07:19.763Z,2.10
2019-05-12T13:12:21.687Z,1.50
2019-05-12T13:17:29.047Z,1.60
2019-05-12T13:22:29.576Z,1.50
2019-05-12T13:27:36.811Z,1.50
2019-05-12T13:32:39.193Z,1.50
2019-05-12T13:37:43.270Z,1.40
2019-05-12T13:42:46.427Z,1.67
2019-05-12T13:47:53.054Z,1.90
2019-05-12T13:52:54.627Z,1.60
2019-05-12T13:57:57.882Z,1.50
2019-05-12T14:03:04.773Z,1.50
2019-05-12T14:08:05.771Z,1.60
2019-05-12T14:13:07.973Z,1.20
2019-05-12T14:18:16.463Z,1.50
2019-05-12T14:23:16.050Z,1.67
2019-05-12T14:28:18.009Z,1.43
2019-05-12T14:33:19.868Z,1.57
2019-05-12T14:38:27.487Z,1.40
2019-05-12T14:43:29.031Z,1.40
2019-05-12T14:48:30.949Z,1.43
2019-05-12T14:53:38.339Z,1.50
2019-05-12T14:58:40.376Z,1.50
2019-05-12T15:03:47.532Z,2.23
2019-05-12T15:08:46.039Z,1.80
2019-05-12T15:13:47.951Z,1.53
2019-05-12T15:18:50.278Z,1.23
2019-05-12T15:23:53.313Z,1.30
2019-05-12T15:28:57.283Z,1.60
2019-05-12T15:33:58.971Z,1.30
2019-05-12T15:39:00.890Z,1.70
2019-05-12T15:44:06.501Z,1.40
2019-05-12T15:49:08.852Z,1.67
2019-05-12T15:54:14.806Z,1.50
2019-05-12T15:59:17.365Z,1.50
2019-05-12T16:04:19.414Z,1.50
2019-05-12T16:09:23.670Z,1.50
2019-05-12T16:14:25.157Z,1.50
2019-05-12T16:19:27.044Z,1.60
2019-05-12T16:24:29.013Z,1.70
2019-05-12T16:29:30.947Z,1.80
2019-05-12T16:34:36.143Z,1.53
2019-05-12T16:39:44.315Z,1.30
2019-05-12T16:44:43.927Z,1.40
2019-05-12T16:49:45.600Z,1.47
2019-05-12T16:54:47.534Z,1.57
2019-05-12T16:59:55.998Z,1.47
2019-05-12T17:04:54.455Z,1.50
2019-05-12T17:10:03.098Z,1.73
2019-05-12T17:15:04.656Z,1.50
2019-05-12T17:20:09.925Z,1.43
2019-05-12T17:25:16.985Z,1.63
2019-05-12T17:30:19.718Z,1.70
2019-05-12T17:35:29.372Z,1.77
2019-05-12T17:40:25.461Z,1.80
2019-05-12T17:45:27.533Z,1.80
2019-05-12T17:50:29.433Z,1.57
2019-05-12T17:55:31.352Z,1.80
2019-05-12T18:00:33.686Z,1.77
2019-05-12T18:05:37.146Z,1.50
2019-05-12T18:10:39.600Z,1.50
2019-05-12T18:15:41.582Z,1.37
2019-05-12T18:20:44.491Z,1.43
2019-05-12T18:25:46.795Z,1.60
2019-05-12T18:30:50.949Z,1.63
2019-05-12T18:35:54.477Z,1.50
2019-05-12T18:40:56.907Z,1.50
2019-05-12T18:46:05.454Z,1.30
2019-05-12T18:51:11.870Z,1.40
2019-05-12T18:56:10.423Z,1.90
2019-05-12T19:01:13.915Z,1.70
2019-05-12T19:06:16.360Z,1.50
2019-05-12T19:11:31.851Z,1.83
2019-05-12T19:16:27.858Z,1.63
2019-05-12T19:21:30.863Z,4.57
2019-05-12T19:26:38.308Z,1.77
2019-05-12T19:31:43.571Z,2.00
2019-05-12T19:36:45.063Z,1.70
2019-05-12T19:41:45.161Z,1.73
2019-05-12T19:46:49.532Z,1.70
2019-05-12T19:51:54.280Z,1.87
2019-05-12T19:56:55.649Z,2.00
2019-05-12T20:02:00.475Z,1.50
2019-05-12T20:07:03.686Z,2.00
2019-05-12T20:12:19.229Z,2.57
2019-05-12T20:17:21.377Z,2.10
2019-05-12T20:22:25.212Z,2.10
2019-05-12T20:27:27.382Z,1.93
2019-05-12T20:32:31.042Z,2.20
2019-05-12T20:37:33.656Z,2.47
2019-05-12T20:42:48.266Z,2.47
2019-05-12T20:47:45.510Z,2.50
2019-05-12T20:52:52.231Z,3.20
2019-05-12T20:57:54.386Z,2.67
2019-05-12T21:02:56.025Z,2.67
2019-05-12T21:08:03.304Z,3.47
2019-05-12T21:13:03.813Z,2.87
2019-05-12T21:18:07.504Z,2.90
2019-05-12T21:23:09.586Z,2.83
2019-05-12T21:28:11.541Z,3.03
2019-05-12T21:33:14.778Z,3.70
2019-05-12T21:38:24.398Z,3.00
2019-05-12T21:43:22.766Z,3.40
2019-05-12T21:48:29.200Z,2.80
2019-05-12T21:53:30.091Z,2.97
2019-05-12T21:58:32.013Z,2.80
2019-05-12T22:03:33.924Z,2.70
2019-05-12T22:08:35.880Z,2.90
2019-05-12T22:13:47.303Z,3.10
2019-05-12T22:18:43.834Z,3.27
2019-05-12T22:23:51.424Z,3.20
2019-05-12T22:28:50.952Z,2.87
2019-05-12T22:33:56.257Z,3.23
2019-05-12T22:39:00.995Z,2.80
2019-05-12T22:44:01.122Z,3.70
2019-05-12T22:49:04.188Z,3.40
2019-05-12T22:54:10.416Z,3.10
2019-05-12T22:59:10.178Z,3.30
2019-05-12T23:04:14.093Z,3.60
2019-05-12T23:09:19.367Z,3.40
2019-05-12T23:14:25.119Z,3.60
2019-05-12T23:19:28.169Z,3.30
2019-05-12T23:24:35.386Z,3.57
2019-05-12T23:29:34.016Z,3.30
2019-05-12T23:34:35.764Z,3.40
2019-05-12T23:39:39.909Z,3.30
2019-05-12T23:44:44.142Z,3.43
2019-05-12T23:49:45.996Z,3.33
2019-05-12T23:54:48.189Z,3.57
2019-05-12T23:59:50.000Z,3.37
